Time;durP1;ratioP1;P1;durP2;ratioP2;P2;SDS_P1;SDS_P2;PMS_P1;PMS_P2;Temp;Humidity;BMP_temperature;BMP_pressure;BME280_temperature;BME280_humidity;BME280_pressure;Samples;Min_cycle;Max_cycle;Signal;HPM_P1;HPM_P2
2022/07/10 00:00:12;;;;;;;1.80;0.63;;;;;;;15.91;60.43;102915.28;5053140;27;97897;-34
2022/07/10 00:02:39;;;;;;;1.42;0.52;;;;;;;15.87;60.68;102909.13;5052848;27;97268;-34
2022/07/10 00:05:05;;;;;;;1.52;0.70;;;;;;;15.82;60.71;102904.81;5051583;27;96612;-34
2022/07/10 00:07:32;;;;;;;1.30;0.55;;;;;;;15.82;61.17;102907.56;5052868;27;96786;-34
2022/07/10 00:09:57;;;;;;;0.60;0.45;;;;;;;15.80;60.72;102904.94;5050838;27;101070;-34
2022/07/10 00:12:22;;;;;;;3.75;0.63;;;;;;;15.82;60.93;102915.75;5051666;27;98780;-34
2022/07/10 00:14:48;;;;;;;2.45;0.55;;;;;;;15.75;60.97;102904.25;5052825;27;96553;-34
2022/07/10 00:17:13;;;;;;;4.47;0.90;;;;;;;15.73;61.20;102905.28;5052951;27;96829;-34
2022/07/10 00:19:39;;;;;;;2.40;0.70;;;;;;;15.74;61.33;102912.53;5052429;27;100829;-34
2022/07/10 00:22:04;;;;;;;2.97;0.98;;;;;;;15.64;61.34;102896.56;5052407;27;99206;-34
2022/07/10 00:24:30;;;;;;;1.42;0.80;;;;;;;15.70;61.28;102900.88;5051186;27;96711;-34
2022/07/10 00:26:55;;;;;;;2.80;0.63;;;;;;;15.64;61.76;102895.69;5052874;27;96762;-34
2022/07/10 00:29:20;;;;;;;1.17;0.50;;;;;;;15.61;61.95;102894.00;5052548;27;102094;-34
2022/07/10 00:31:46;;;;;;;2.33;0.82;;;;;;;15.58;61.75;102899.59;5052630;27;96803;-34
2022/07/10 00:34:12;;;;;;;2.08;0.95;;;;;;;15.51;62.33;102899.00;5052196;27;96845;-34
2022/07/10 00:36:38;;;;;;;1.27;0.70;;;;;;;15.51;62.26;102899.00;5052810;27;96867;-33
2022/07/10 00:39:44;;;;;;;2.10;0.70;;;;;;;15.52;63.09;102905.38;5052260;27;99730;-34
2022/07/10 00:42:12;;;;;;;3.10;0.90;;;;;;;15.46;62.47;102902.94;5052269;27;99260;-34
2022/07/10 00:44:37;;;;;;;2.67;0.68;;;;;;;15.41;62.46;102891.38;5051896;27;96569;-34
2022/07/10 00:47:05;;;;;;;1.95;0.82;;;;;;;15.43;62.90;102893.06;5050959;27;96987;-34
2022/07/10 00:49:31;;;;;;;2.25;0.75;;;;;;;15.39;62.47;102885.09;5050812;27;100907;-34
2022/07/10 00:51:59;;;;;;;5.05;1.10;;;;;;;15.36;62.16;102882.53;5051371;27;100950;-33
2022/07/10 00:54:25;;;;;;;1.65;0.70;;;;;;;15.34;62.45;102884.44;5054545;27;96532;-34
2022/07/10 00:56:51;;;;;;;2.67;0.88;;;;;;;15.33;62.76;102880.81;5055946;27;96790;-34
2022/07/10 00:59:17;;;;;;;3.83;0.68;;;;;;;15.31;62.62;102888.19;5055533;27;98438;-34
2022/07/10 01:01:42;;;;;;;1.58;0.82;;;;;;;15.22;62.96;102884.06;5056116;27;97804;-34
2022/07/10 01:04:08;;;;;;;1.92;0.80;;;;;;;15.23;63.36;102887.69;5055744;27;96705;-34
2022/07/10 01:06:34;;;;;;;2.28;0.70;;;;;;;15.22;63.03;102888.66;5055907;27;96910;-34
2022/07/10 01:08:59;;;;;;;2.08;0.80;;;;;;;15.21;63.01;102876.84;5055117;27;103692;-34
2022/07/10 01:11:24;;;;;;;4.43;0.63;;;;;;;15.25;63.12;102881.22;5055540;27;97890;-33
2022/07/10 01:13:50;;;;;;;1.98;0.70;;;;;;;15.23;63.00;102877.66;5055654;27;96695;-34
2022/07/10 01:16:15;;;;;;;1.90;0.70;;;;;;;15.24;62.17;102876.69;5055966;27;96768;-34
2022/07/10 01:18:41;;;;;;;2.15;0.77;;;;;;;15.20;62.95;102877.78;5055691;27;97949;-34
2022/07/10 01:21:23;;;;;;;2.00;0.80;;;;;;;15.23;63.22;102883.13;5055610;27;98305;-34
2022/07/10 01:23:49;;;;;;;3.10;1.02;;;;;;;15.17;63.14;102871.59;5055600;27;96579;-34
2022/07/10 01:26:14;;;;;;;1.92;0.85;;;;;;;15.17;63.03;102869.75;5055949;27;96770;-34
2022/07/10 01:28:40;;;;;;;2.88;0.60;;;;;;;15.18;63.02;102876.09;5055397;27;97965;-34
2022/07/10 01:31:06;;;;;;;1.02;0.50;;;;;;;15.17;63.27;102864.28;5053978;27;101119;-34
2022/07/10 01:33:31;;;;;;;0.47;0.32;;;;;;;15.18;63.42;102877.00;5054877;27;96836;-33
2022/07/10 01:35:57;;;;;;;1.13;0.63;;;;;;;15.13;63.14;102867.25;5055525;27;96809;-33
2022/07/10 01:38:22;;;;;;;0.95;0.60;;;;;;;15.13;63.33;102870.84;5055572;27;97489;-34
2022/07/10 01:40:47;;;;;;;0.63;0.45;;;;;;;15.18;63.35;102879.75;5055280;27;97986;-34
2022/07/10 01:43:12;;;;;;;1.40;0.50;;;;;;;15.13;63.01;102862.66;5054866;27;106596;-34
2022/07/10 01:45:38;;;;;;;1.52;0.65;;;;;;;15.15;63.37;102866.22;5054974;27;96808;-34
2022/07/10 01:48:03;;;;;;;1.00;0.52;;;;;;;15.16;63.10;102856.16;5055206;27;97929;-34
2022/07/10 01:50:29;;;;;;;1.10;0.47;;;;;;;15.16;62.91;102861.63;5055535;27;97344;-33
2022/07/10 01:52:54;;;;;;;0.80;0.35;;;;;;;15.12;63.14;102852.72;5055579;27;96496;-34
2022/07/10 01:55:19;;;;;;;2.25;0.85;;;;;;;15.10;63.14;102851.03;5055296;27;96779;-34
2022/07/10 01:57:45;;;;;;;2.70;0.75;;;;;;;15.04;63.39;102847.66;5054407;27;97405;-34
2022/07/10 02:00:10;;;;;;;3.22;0.88;;;;;;;15.06;63.34;102859.38;5054528;27;106532;-34
2022/07/10 02:02:36;;;;;;;0.90;0.50;;;;;;;15.06;63.41;102861.19;5054954;27;96630;-33
2022/07/10 02:05:01;;;;;;;4.00;0.70;;;;;;;15.01;63.64;102855.97;5053953;27;96811;-34
2022/07/10 02:07:27;;;;;;;3.25;0.68;;;;;;;14.98;63.49;102852.50;5054593;27;98902;-33
2022/07/10 02:09:52;;;;;;;2.40;0.35;;;;;;;14.96;63.72;102848.97;5054382;27;97780;-33
2022/07/10 02:12:17;;;;;;;1.38;0.60;;;;;;;14.97;63.91;102864.34;5054725;27;96736;-34
2022/07/10 02:14:43;;;;;;;1.60;0.73;;;;;;;14.90;63.57;102849.25;5054966;27;96788;-34
2022/07/10 02:17:08;;;;;;;2.15;0.70;;;;;;;14.92;63.75;102859.16;5054710;27;98109;-34
2022/07/10 02:19:34;;;;;;;2.03;0.50;;;;;;;14.91;63.93;102862.81;5054443;27;99063;-33
2022/07/10 02:21:59;;;;;;;3.67;0.80;;;;;;;14.88;63.98;102860.25;5054212;27;96654;-34
2022/07/10 02:24:25;;;;;;;0.68;0.45;;;;;;;14.81;64.30;102851.47;5054867;27;96738;-34
2022/07/10 02:26:50;;;;;;;1.92;0.90;;;;;;;14.87;64.26;102858.47;5052681;27;102090;-34
2022/07/10 02:29:16;;;;;;;4.35;0.80;;;;;;;14.83;64.51;102860.47;5054730;27;97749;-34
2022/07/10 02:31:41;;;;;;;4.47;0.40;;;;;;;14.80;64.35;102859.72;5054428;27;96528;-34
2022/07/10 02:34:10;;;;;;;2.60;0.52;;;;;;;14.72;64.06;102846.44;5054231;27;96822;-34
2022/07/10 02:36:38;;;;;;;2.03;0.65;;;;;;;14.73;64.29;102856.41;5052927;27;100070;-33
2022/07/10 02:39:05;;;;;;;0.93;0.43;;;;;;;14.66;64.63;102838.56;5054645;27;97861;-33
2022/07/10 02:41:31;;;;;;;0.47;0.38;;;;;;;14.72;64.92;102842.81;5052688;27;96622;-34
2022/07/10 02:43:56;;;;;;;1.10;0.60;;;;;;;14.70;64.92;102831.09;5052842;27;96883;-33
2022/07/10 02:46:22;;;;;;;0.88;0.60;;;;;;;14.78;64.53;102846.16;5053676;27;103654;-34
2022/07/10 02:48:47;;;;;;;0.82;0.57;;;;;;;14.79;64.44;102847.91;5054225;27;97367;-34
2022/07/10 02:51:13;;;;;;;3.60;0.43;;;;;;;14.76;64.87;102839.00;5054145;27;96575;-33
2022/07/10 02:53:39;;;;;;;1.50;0.43;;;;;;;14.74;64.66;102835.47;5054251;27;96782;-33
2022/07/10 02:56:04;;;;;;;0.93;0.52;;;;;;;14.79;65.53;102847.03;5053536;27;97985;-34
2022/07/10 02:58:29;;;;;;;1.10;0.60;;;;;;;14.79;64.64;102842.47;5054044;27;97760;-34
2022/07/10 03:00:55;;;;;;;0.43;0.35;;;;;;;14.75;64.60;102837.22;5053926;27;99387;-34
2022/07/10 03:03:21;;;;;;;0.80;0.45;;;;;;;14.80;64.43;102840.59;5054504;27;96929;-34
2022/07/10 03:05:46;;;;;;;0.90;0.40;;;;;;;14.78;64.88;102835.25;5053929;27;97160;-34
2022/07/10 03:08:12;;;;;;;2.08;0.60;;;;;;;14.82;65.04;102835.97;5053750;27;98288;-34
2022/07/10 03:10:37;;;;;;;1.92;0.60;;;;;;;14.85;64.54;102835.84;5052798;27;96620;-34
2022/07/10 03:13:03;;;;;;;0.90;0.50;;;;;;;14.85;64.93;102830.38;5053639;27;96821;-34
2022/07/10 03:15:28;;;;;;;1.38;0.50;;;;;;;14.90;65.00;102838.31;5053639;27;97534;-34
2022/07/10 03:17:53;;;;;;;2.28;0.80;;;;;;;14.89;64.30;102825.66;5053444;27;99092;-33
2022/07/10 03:20:19;;;;;;;0.85;0.32;;;;;;;14.94;64.35;102834.50;5053813;27;96656;-34
2022/07/10 03:22:44;;;;;;;1.00;0.50;;;;;;;14.97;64.30;102832.53;5053855;27;96807;-34
2022/07/10 03:25:10;;;;;;;0.43;0.40;;;;;;;15.02;64.25;102838.63;5053374;27;98645;-34
2022/07/10 03:27:35;;;;;;;2.03;0.52;;;;;;;14.98;64.56;102826.09;5053802;27;99369;-33
2022/07/10 03:30:00;;;;;;;4.53;0.73;;;;;;;15.01;64.63;102820.47;5053797;27;96444;-34
2022/07/10 03:32:26;;;;;;;1.27;0.45;;;;;;;15.07;64.27;102827.50;5053850;27;96801;-33
2022/07/10 03:34:58;;;;;;;5.13;0.90;;;;;;;15.09;64.70;102828.31;5052593;27;99264;-33
2022/07/10 03:37:23;;;;;;;1.40;0.47;;;;;;;15.09;64.31;102828.31;5051943;27;100841;-33
2022/07/10 03:39:49;;;;;;;1.90;0.60;;;;;;;15.11;64.00;102815.47;5053258;27;96662;-34
2022/07/10 03:42:14;;;;;;;2.42;0.70;;;;;;;15.13;64.49;102815.38;5051950;27;96815;-33
2022/07/10 03:44:40;;;;;;;0.47;0.35;;;;;;;15.16;64.45;102823.41;5052876;27;98821;-33
2022/07/10 03:47:05;;;;;;;2.00;0.55;;;;;;;15.10;64.52;102808.22;5053188;27;99503;-34
2022/07/10 03:49:31;;;;;;;2.05;0.57;;;;;;;15.18;64.33;102821.50;5053344;27;96607;-33
2022/07/10 03:52:01;;;;;;;2.45;0.40;;;;;;;15.15;63.90;102814.34;5053574;27;96923;-33
2022/07/10 03:54:26;;;;;;;3.40;0.68;;;;;;;15.20;63.73;102811.38;5051583;27;101041;-34
2022/07/10 03:59:36;;;;;;;2.00;0.65;;;;;;;15.27;63.83;102816.47;5053178;27;96753;-33
2022/07/10 04:02:01;;;;;;;2.33;0.52;;;;;;;15.24;63.67;102813.00;5052896;27;100688;-33
2022/07/10 04:04:27;;;;;;;2.72;0.77;;;;;;;15.31;64.02;102819.06;5052921;27;97937;-33
2022/07/10 04:06:53;;;;;;;2.50;0.63;;;;;;;15.31;64.03;102816.34;5052303;27;99113;-33
2022/07/10 04:09:18;;;;;;;1.10;0.43;;;;;;;15.33;64.13;102808.94;5052385;27;96482;-34
2022/07/10 04:11:43;;;;;;;2.28;0.45;;;;;;;15.34;63.61;102808.84;5051579;27;96731;-33
2022/07/10 04:14:08;;;;;;;1.50;0.60;;;;;;;15.34;64.18;102806.13;5052637;27;103212;-34
2022/07/10 04:16:34;;;;;;;2.65;0.50;;;;;;;15.30;63.89;102809.97;5052915;27;99151;-33
2022/07/10 04:18:59;;;;;;;0.45;0.40;;;;;;;15.39;63.95;102816.81;5052986;27;96767;-33
2022/07/10 04:21:25;;;;;;;3.42;0.60;;;;;;;15.40;63.93;102814.03;5052537;27;96848;-34
2022/07/10 04:23:50;;;;;;;1.33;0.55;;;;;;;15.37;63.54;102811.41;5052216;27;97861;-33
2022/07/10 04:26:15;;;;;;;1.38;0.50;;;;;;;15.38;63.85;102815.06;5052267;27;98987;-33
2022/07/10 04:28:41;;;;;;;2.10;0.43;;;;;;;15.41;64.24;102798.50;5052343;27;96543;-34
2022/07/10 04:31:06;;;;;;;5.78;0.70;;;;;;;15.44;64.16;102804.69;5052533;27;96826;-33
2022/07/10 04:33:31;;;;;;;4.20;0.75;;;;;;;15.44;64.45;102806.53;5052300;27;99566;-34
2022/07/10 04:35:57;;;;;;;0.43;0.40;;;;;;;15.47;64.11;102807.28;5052367;27;97456;-34
2022/07/10 04:38:22;;;;;;;2.53;0.63;;;;;;;15.50;64.04;102804.38;5052408;27;102198;-33
2022/07/10 04:40:47;;;;;;;4.38;0.82;;;;;;;15.54;64.04;102818.78;5053041;27;96891;-33
2022/07/10 04:43:13;;;;;;;2.65;0.57;;;;;;;15.55;64.19;102816.94;5052891;27;97352;-33
2022/07/10 04:45:38;;;;;;;1.75;0.80;;;;;;;15.59;63.94;102816.69;5052208;27;99649;-33
2022/07/10 04:48:04;;;;;;;1.00;0.47;;;;;;;15.57;64.04;102818.63;5051902;27;96548;-33
2022/07/10 04:50:30;;;;;;;0.60;0.40;;;;;;;15.58;64.11;102819.50;5050820;27;98357;-34
2022/07/10 04:52:56;;;;;;;0.90;0.55;;;;;;;15.58;64.38;102811.31;5052143;27;97792;-33
2022/07/10 04:55:22;;;;;;;2.35;0.40;;;;;;;15.60;64.05;102817.59;5052350;27;97317;-34
2022/07/10 04:57:47;;;;;;;3.80;0.73;;;;;;;15.65;64.03;102808.19;5050621;27;96769;-34
2022/07/10 05:00:14;;;;;;;2.17;0.52;;;;;;;15.66;64.22;102822.72;5052688;27;96778;-33
2022/07/10 05:02:39;;;;;;;2.25;0.80;;;;;;;15.62;63.79;102822.00;5050618;27;102266;-33
2022/07/10 05:05:05;;;;;;;1.50;0.55;;;;;;;15.70;64.22;102833.44;5052605;27;97315;-34
2022/07/10 05:07:30;;;;;;;2.42;0.52;;;;;;;15.70;63.96;102822.50;5052070;27;96466;-33
2022/07/10 05:09:55;;;;;;;3.63;0.80;;;;;;;15.72;64.10;102827.91;5051421;27;111506;-34
2022/07/10 05:12:21;;;;;;;1.27;0.28;;;;;;;15.74;64.15;102830.56;5051318;27;104336;-34
2022/07/10 05:14:46;;;;;;;2.50;0.60;;;;;;;15.70;64.38;102818.91;5051921;27;98848;-33
2022/07/10 05:17:11;;;;;;;2.63;0.57;;;;;;;15.78;64.01;102826.69;5051974;27;96516;-33
2022/07/10 05:19:36;;;;;;;1.50;0.50;;;;;;;15.80;63.80;102828.41;5051720;27;96849;-34
2022/07/10 05:22:02;;;;;;;2.08;0.90;;;;;;;15.78;65.13;102821.22;5051972;27;97464;-34
2022/07/10 05:24:27;;;;;;;3.35;0.80;;;;;;;15.83;64.52;102828.25;5051625;27;99414;-34
2022/07/10 05:26:53;;;;;;;4.82;0.60;;;;;;;15.82;64.31;102825.56;5050469;27;96591;-33
2022/07/10 05:29:18;;;;;;;1.35;0.50;;;;;;;15.86;63.77;102821.72;5052175;27;101301;-33
2022/07/10 05:31:44;;;;;;;1.83;0.60;;;;;;;15.93;63.85;102825.91;5050035;27;105820;-33
2022/07/10 05:34:18;;;;;;;1.42;0.47;;;;;;;15.95;64.20;102820.38;5051185;27;99202;-34
2022/07/10 05:36:43;;;;;;;1.00;0.50;;;;;;;15.92;64.21;102805.00;5051452;27;96536;-33
2022/07/10 05:39:09;;;;;;;0.85;0.52;;;;;;;16.02;63.85;102819.97;5054253;27;96593;-34
2022/07/10 05:41:34;;;;;;;0.93;0.60;;;;;;;16.02;64.38;102821.81;5055214;27;98345;-33
2022/07/10 05:44:00;;;;;;;1.23;0.52;;;;;;;16.04;64.77;102818.03;5055198;27;96887;-33
2022/07/10 05:46:25;;;;;;;1.92;0.70;;;;;;;16.10;64.25;102819.53;5055134;27;96717;-33
2022/07/10 05:48:51;;;;;;;1.00;0.45;;;;;;;16.14;64.19;102826.63;5055031;27;96913;-34
2022/07/10 05:51:16;;;;;;;2.28;0.90;;;;;;;16.19;64.40;102816.31;5053598;27;99443;-34
2022/07/10 05:53:41;;;;;;;1.38;0.60;;;;;;;16.23;64.48;102814.28;5055474;27;97812;-34
2022/07/10 05:56:07;;;;;;;3.58;0.90;;;;;;;16.29;64.37;102803.91;5054963;27;97283;-34
2022/07/10 05:58:32;;;;;;;4.10;0.98;;;;;;;16.44;63.99;102814.97;5054985;27;96856;-33
2022/07/10 06:00:57;;;;;;;1.42;0.60;;;;;;;16.46;64.14;102802.97;5054589;27;97920;-34
2022/07/10 06:03:24;;;;;;;1.08;0.52;;;;;;;16.50;63.87;102799.13;5054307;27;111453;-34
2022/07/10 06:05:49;;;;;;;1.92;0.77;;;;;;;16.54;63.25;102802.56;5053330;27;96578;-33
2022/07/10 06:08:14;;;;;;;1.77;0.55;;;;;;;16.56;63.82;102797.88;5053672;27;96963;-34
2022/07/10 06:10:40;;;;;;;1.80;0.57;;;;;;;16.60;64.32;102799.50;5054346;27;99507;-33
2022/07/10 06:13:06;;;;;;;0.70;0.40;;;;;;;16.67;64.02;102805.50;5054448;27;99282;-33
2022/07/10 06:15:31;;;;;;;2.53;0.90;;;;;;;16.65;63.70;102802.84;5053362;27;96729;-34
2022/07/10 06:17:57;;;;;;;3.53;1.23;;;;;;;16.73;63.92;102810.63;5055221;27;96745;-34
2022/07/10 06:20:26;;;;;;;5.82;0.90;;;;;;;16.74;64.00;102807.81;5054516;27;97937;-34
2022/07/10 06:22:51;;;;;;;1.58;0.50;;;;;;;16.71;64.37;102804.38;5053183;27;99839;-33
2022/07/10 06:25:17;;;;;;;2.25;0.73;;;;;;;16.78;63.44;102814.00;5054299;27;96485;-34
2022/07/10 06:27:42;;;;;;;2.17;0.80;;;;;;;16.71;63.90;102807.13;5053146;27;96901;-33
2022/07/10 06:30:08;;;;;;;4.82;0.80;;;;;;;16.74;63.76;102813.28;5054169;27;105014;-33
2022/07/10 06:32:33;;;;;;;2.15;0.50;;;;;;;16.79;63.76;102812.19;5054442;27;97860;-34
2022/07/10 06:34:59;;;;;;;4.97;0.68;;;;;;;16.78;63.73;102803.06;5054428;27;96598;-34
2022/07/10 06:37:24;;;;;;;6.07;0.70;;;;;;;16.88;63.41;102812.53;5054521;27;96805;-34
2022/07/10 06:39:49;;;;;;;2.38;0.60;;;;;;;16.97;63.61;102802.91;5054333;27;98153;-33
2022/07/10 06:42:15;;;;;;;2.15;0.55;;;;;;;17.11;63.30;102815.81;5054812;27;97882;-33
2022/07/10 06:44:42;;;;;;;1.85;0.70;;;;;;;17.18;62.86;102812.66;5052845;27;96464;-33
2022/07/10 06:49:53;;;;;;;1.80;0.50;;;;;;;17.17;62.92;102805.38;5053493;27;97186;-33
2022/07/10 06:52:18;;;;;;;2.92;0.63;;;;;;;17.20;62.36;102796.97;5052624;27;100765;-33
2022/07/10 06:54:43;;;;;;;1.42;0.60;;;;;;;17.30;62.88;102818.34;5054412;27;96551;-33
2022/07/10 06:57:09;;;;;;;4.45;0.77;;;;;;;17.39;62.82;102813.22;5054250;27;96767;-33
2022/07/10 06:59:34;;;;;;;2.17;0.80;;;;;;;17.47;62.69;102807.31;5053901;27;97857;-34
2022/07/10 07:02:00;;;;;;;4.05;0.77;;;;;;;17.56;62.95;102820.44;5053993;27;97812;-33
2022/07/10 07:04:25;;;;;;;4.85;1.08;;;;;;;17.54;62.28;102811.44;5052506;27;96684;-34
2022/07/10 07:06:51;;;;;;;2.47;1.17;;;;;;;17.62;62.69;102821.94;5054530;27;96769;-34
2022/07/10 07:09:16;;;;;;;7.68;1.02;;;;;;;17.51;62.97;102808.00;5053001;27;107937;-34
2022/07/10 07:11:41;;;;;;;1.60;0.70;;;;;;;17.55;63.00;102818.69;5052418;27;100749;-34
2022/07/10 07:14:07;;;;;;;2.15;0.80;;;;;;;17.51;62.87;102808.00;5053289;27;104453;-33
2022/07/10 07:16:41;;;;;;;2.83;0.70;;;;;;;17.52;62.83;102816.13;5053332;27;101007;-34
2022/07/10 07:19:07;;;;;;;3.25;1.05;;;;;;;17.53;62.77;102817.00;5052354;27;99901;-34
2022/07/10 07:24:19;;;;;;;6.57;1.05;;;;;;;17.58;62.57;102825.84;5054144;27;96577;-34
2022/07/10 07:26:48;;;;;;;3.08;0.88;;;;;;;17.58;62.81;102812.13;5051824;27;96887;-34
2022/07/10 07:29:17;;;;;;;2.10;0.55;;;;;;;17.63;62.84;102799.03;5051960;27;99625;-33
2022/07/10 07:31:43;;;;;;;1.13;0.55;;;;;;;17.86;62.73;102818.75;5053526;27;98894;-33
2022/07/10 07:34:08;;;;;;;2.95;0.80;;;;;;;17.85;62.39;102811.47;5053088;27;96725;-33
2022/07/10 07:36:34;;;;;;;4.30;0.80;;;;;;;17.91;62.61;102828.44;5052178;27;96956;-34
2022/07/10 07:38:59;;;;;;;1.33;0.80;;;;;;;17.94;62.84;102822.75;5053111;27;97581;-34
2022/07/10 07:41:25;;;;;;;1.20;0.70;;;;;;;18.02;62.38;102823.19;5053112;27;97788;-34
2022/07/10 07:43:50;;;;;;;1.55;0.70;;;;;;;18.09;62.30;102825.53;5053345;27;96601;-33
2022/07/10 07:46:16;;;;;;;2.10;0.88;;;;;;;18.01;62.42;102809.56;5053451;27;96828;-33
2022/07/10 07:48:42;;;;;;;3.15;0.80;;;;;;;18.07;62.61;102831.13;5053337;27;97881;-34
2022/07/10 07:51:07;;;;;;;4.20;0.70;;;;;;;18.13;61.72;102827.13;5052940;27;99043;-34
2022/07/10 07:53:33;;;;;;;4.40;1.00;;;;;;;18.14;61.50;102826.13;5053075;27;96488;-34
2022/07/10 07:55:58;;;;;;;1.75;0.70;;;;;;;18.25;61.70;102829.09;5053428;27;96790;-34
2022/07/10 07:58:23;;;;;;;8.25;1.13;;;;;;;18.29;61.44;102811.47;5053109;27;97264;-34
2022/07/10 08:00:49;;;;;;;2.22;0.68;;;;;;;18.44;61.67;102826.06;5052982;27;97810;-34
2022/07/10 08:03:15;;;;;;;6.88;0.95;;;;;;;18.43;61.37;102833.44;5051851;27;96684;-34
2022/07/10 08:05:40;;;;;;;2.38;0.77;;;;;;;18.42;61.75;102833.50;5051507;27;96831;-34
2022/07/10 08:08:08;;;;;;;2.72;1.42;;;;;;;18.43;61.40;102822.44;5053032;27;98060;-34
2022/07/10 08:10:34;;;;;;;2.05;0.70;;;;;;;18.46;61.67;102825.00;5052197;27;97325;-34
2022/07/10 08:12:59;;;;;;;4.60;0.95;;;;;;;18.44;61.44;102826.94;5051535;27;96529;-34
2022/07/10 08:15:25;;;;;;;2.45;1.08;;;;;;;18.41;60.97;102812.56;5053096;27;96844;-33
2022/07/10 08:17:53;;;;;;;1.13;0.73;;;;;;;18.46;61.15;102821.38;5051322;27;101115;-34
2022/07/10 08:20:19;;;;;;;1.35;0.75;;;;;;;18.57;61.23;102821.59;5051742;27;100538;-34
2022/07/10 08:22:46;;;;;;;1.73;0.50;;;;;;;18.58;60.74;102812.34;5051462;27;96589;-34
2022/07/10 08:25:12;;;;;;;3.22;0.75;;;;;;;18.70;60.61;102816.16;5051180;27;96847;-33
2022/07/10 08:27:38;;;;;;;1.02;0.70;;;;;;;18.79;60.85;102832.09;5052132;27;97951;-34
2022/07/10 08:30:04;;;;;;;1.80;0.82;;;;;;;18.74;60.70;102825.09;5050879;27;101381;-34
2022/07/10 08:32:30;;;;;;;1.50;0.70;;;;;;;18.83;60.75;102824.53;5051133;27;97992;-34
2022/07/10 08:34:55;;;;;;;1.15;0.60;;;;;;;18.93;60.54;102816.59;5052588;27;96880;-34
2022/07/10 08:37:21;;;;;;;1.85;0.73;;;;;;;19.07;60.44;102816.56;5052214;27;106423;-34
2022/07/10 08:39:46;;;;;;;1.42;0.65;;;;;;;19.24;60.23;102807.19;5052343;27;97809;-34
2022/07/10 08:42:12;;;;;;;3.65;0.75;;;;;;;19.42;59.60;102816.91;5052786;27;96618;-34
2022/07/10 08:44:38;;;;;;;2.03;0.70;;;;;;;19.52;59.55;102823.59;5052970;27;96792;-34
2022/07/10 08:47:04;;;;;;;4.38;0.80;;;;;;;19.48;59.02;102807.41;5050913;27;100764;-34
2022/07/10 08:49:47;;;;;;;1.20;0.70;;;;;;;19.58;59.01;102810.41;5050814;27;100399;-34
2022/07/10 08:52:34;;;;;;;2.65;0.70;;;;;;;19.69;59.28;102827.09;5050341;27;97330;-34
2022/07/10 08:54:59;;;;;;;1.20;0.70;;;;;;;19.69;59.22;102807.84;5052434;27;96840;-34
2022/07/10 08:57:26;;;;;;;4.82;0.80;;;;;;;19.72;59.51;102816.75;5052017;27;97449;-34
2022/07/10 08:59:51;;;;;;;1.35;0.50;;;;;;;19.68;59.05;102809.69;5050661;27;100721;-34
2022/07/10 09:02:17;;;;;;;1.60;0.90;;;;;;;19.77;58.85;102808.16;5050963;27;96632;-34
2022/07/10 09:04:42;;;;;;;2.13;0.80;;;;;;;19.82;58.92;102811.47;5052227;27;96804;-34
2022/07/10 09:07:08;;;;;;;4.28;0.80;;;;;;;19.84;58.50;102804.00;5051780;27;107120;-34
2022/07/10 09:09:51;;;;;;;1.67;0.80;;;;;;;19.90;58.40;102798.09;5050391;27;100286;-34
2022/07/10 09:12:16;;;;;;;2.55;0.65;;;;;;;19.93;58.31;102800.63;5050657;27;96722;-34
2022/07/10 09:14:51;;;;;;;2.47;0.75;;;;;;;20.03;58.64;102786.22;5055476;27;96826;-34
2022/07/10 09:17:18;;;;;;;0.95;0.50;;;;;;;20.15;58.25;102788.09;5053402;27;101390;-34
2022/07/10 09:19:44;;;;;;;2.15;0.85;;;;;;;20.28;57.95;102799.97;5054161;27;100819;-34
2022/07/10 09:22:11;;;;;;;0.93;0.57;;;;;;;20.32;57.37;102787.75;5054233;27;96693;-34
2022/07/10 09:24:46;;;;;;;2.55;0.70;;;;;;;20.40;57.73;102791.81;5054098;27;96906;-34
2022/07/10 09:27:15;;;;;;;2.80;0.55;;;;;;;20.41;57.17;102796.34;5055620;27;98051;-34
2022/07/10 09:29:56;;;;;;;2.13;0.68;;;;;;;20.43;57.22;102783.38;5053902;27;100790;-34
2022/07/10 09:32:21;;;;;;;2.15;1.10;;;;;;;20.51;57.12;102780.91;5055352;27;96657;-34
2022/07/10 09:34:49;;;;;;;0.90;0.57;;;;;;;20.58;56.97;102780.38;5055549;27;96706;-34
2022/07/10 09:37:20;;;;;;;2.28;0.77;;;;;;;20.60;56.64;102787.66;5053855;27;101093;-34
2022/07/10 09:40:05;;;;;;;4.15;0.95;;;;;;;20.57;56.83;102783.28;5055152;27;99479;-34
2022/07/10 09:42:34;;;;;;;3.10;1.00;;;;;;;20.54;57.43;102791.69;5053485;27;96980;-34
2022/07/10 09:45:12;;;;;;;2.67;0.85;;;;;;;20.46;57.43;102784.00;5053925;27;97331;-34
2022/07/10 09:47:38;;;;;;;1.40;0.82;;;;;;;20.49;57.42;102778.25;5053731;27;101370;-34
2022/07/10 09:50:16;;;;;;;2.80;0.80;;;;;;;20.60;57.18;102782.16;5055129;27;97615;-34
2022/07/10 09:52:42;;;;;;;3.42;0.80;;;;;;;20.67;56.86;102778.84;5053657;27;96773;-34
2022/07/10 09:55:08;;;;;;;3.13;0.80;;;;;;;20.76;57.09;102780.91;5055270;27;96810;-34
2022/07/10 09:57:34;;;;;;;4.40;1.55;;;;;;;20.95;56.88;102776.75;5054906;27;98127;-34
2022/07/10 10:00:00;;;;;;;1.63;0.75;;;;;;;21.07;56.77;102773.13;5055467;27;97440;-34
2022/07/10 10:02:25;;;;;;;4.18;0.85;;;;;;;21.14;56.33;102763.38;5053763;27;96750;-34
2022/07/10 10:04:51;;;;;;;2.03;0.88;;;;;;;21.23;56.10;102772.81;5054924;27;96744;-34
2022/07/10 10:07:18;;;;;;;1.85;0.90;;;;;;;21.36;55.46;102770.88;5054166;27;98130;-34
2022/07/10 10:09:53;;;;;;;5.43;0.75;;;;;;;21.58;55.19;102767.38;5052817;27;101570;-34
2022/07/10 10:12:34;;;;;;;3.40;0.80;;;;;;;21.88;54.34;102776.09;5053452;27;96544;-34
2022/07/10 10:15:00;;;;;;;5.65;0.90;;;;;;;22.04;53.88;102763.72;5055289;27;96472;-34
2022/07/10 10:17:28;;;;;;;1.55;1.00;;;;;;;22.28;53.57;102768.31;5053318;27;101821;-34
2022/07/10 10:22:45;;;;;;;1.65;0.55;;;;;;;22.58;52.55;102762.19;5055156;27;96492;-34
2022/07/10 10:25:13;;;;;;;3.33;1.00;;;;;;;22.72;52.64;102774.84;5052689;27;96797;-34
2022/07/10 10:27:39;;;;;;;2.42;0.80;;;;;;;22.86;51.82;102768.19;5052899;27;101307;-34
2022/07/10 10:30:05;;;;;;;1.40;0.75;;;;;;;23.01;51.28;102760.53;5053911;27;97419;-34
2022/07/10 10:32:31;;;;;;;5.93;0.82;;;;;;;23.12;50.61;102754.97;5053918;27;96494;-34
2022/07/10 10:34:57;;;;;;;2.20;0.80;;;;;;;23.09;51.04;102760.75;5054446;27;96914;-34
2022/07/10 10:37:34;;;;;;;2.67;0.98;;;;;;;23.08;50.05;102764.53;5054093;27;99390;-34
2022/07/10 10:39:59;;;;;;;3.00;0.82;;;;;;;23.06;50.83;102764.66;5054319;27;99209;-34
2022/07/10 10:42:34;;;;;;;4.93;0.90;;;;;;;22.96;50.70;102774.69;5053583;27;119129;-33
2022/07/10 10:45:24;;;;;;;2.15;0.88;;;;;;;22.90;51.39;102762.25;5054300;27;96826;-34
2022/07/10 10:48:10;;;;;;;2.05;1.05;;;;;;;22.79;50.75;102754.00;5052704;27;100743;-33
2022/07/10 10:51:01;;;;;;;2.72;0.75;;;;;;;22.76;50.71;102770.81;5054681;27;97698;-34
2022/07/10 10:53:29;;;;;;;3.80;1.00;;;;;;;22.68;51.38;102774.22;5052699;27;99735;-34
2022/07/10 10:56:00;;;;;;;2.10;0.90;;;;;;;22.59;51.57;102771.34;5052412;27;96883;-33
2022/07/10 10:58:39;;;;;;;1.10;0.65;;;;;;;22.54;52.24;102770.84;5053753;27;98490;-34
2022/07/10 11:01:27;;;;;;;3.30;0.90;;;;;;;22.51;51.26;102771.09;5052700;27;100656;-34
2022/07/10 11:04:04;;;;;;;3.78;0.70;;;;;;;22.41;51.61;102757.16;5052361;27;96691;-33
2022/07/10 11:06:49;;;;;;;1.08;0.70;;;;;;;22.33;52.31;102767.94;5052450;27;96974;-34
2022/07/10 11:09:35;;;;;;;3.63;1.00;;;;;;;22.33;51.51;102754.13;5052136;27;99416;-34
2022/07/10 11:12:08;;;;;;;5.80;1.02;;;;;;;22.31;51.60;102751.53;5052775;27;99214;-35
2022/07/10 11:14:39;;;;;;;1.05;0.70;;;;;;;22.32;51.26;102746.88;5052278;27;96785;-34
2022/07/10 11:17:05;;;;;;;1.23;0.60;;;;;;;22.36;51.34;102756.66;5052848;27;96924;-34
2022/07/10 11:19:32;;;;;;;2.47;0.90;;;;;;;22.38;51.00;102741.72;5052130;27;101003;-34
2022/07/10 11:22:43;;;;;;;4.38;1.10;;;;;;;22.61;50.59;102755.53;5052154;27;100583;-33
2022/07/10 11:25:34;;;;;;;3.58;0.90;;;;;;;22.64;50.05;102752.50;5053087;27;96599;-33
2022/07/10 11:28:12;;;;;;;3.55;0.82;;;;;;;22.72;50.75;102758.28;5053866;27;96608;-34
2022/07/10 11:30:49;;;;;;;3.65;0.70;;;;;;;22.97;49.79;102753.47;5053110;27;98084;-34
2022/07/10 11:33:15;;;;;;;1.05;0.88;;;;;;;23.11;49.48;102742.16;5051585;27;101025;-34
2022/07/10 11:35:45;;;;;;;2.72;0.68;;;;;;;23.22;48.63;102738.47;5052007;27;96602;-33